createdAt,value
2023-02-27T00:03:33.891Z,101725.48
2023-02-27T00:08:58.330Z,101729.00
2023-02-27T00:14:22.941Z,101728.19
2023-02-27T00:19:46.813Z,101729.05
2023-02-27T00:25:12.654Z,101734.31
2023-02-27T00:30:38.193Z,101739.53
2023-02-27T00:36:12.902Z,101742.16
2023-02-27T00:41:35.223Z,101758.87
2023-02-27T00:46:57.490Z,101757.97
2023-02-27T00:52:19.674Z,101760.59
2023-02-27T00:57:41.911Z,101757.91
2023-02-27T01:03:04.583Z,101753.49
2023-02-27T01:08:27.486Z,101742.95
2023-02-27T01:13:50.195Z,101740.38
2023-02-27T01:19:14.587Z,101742.97
2023-02-27T01:24:39.598Z,101740.34
2023-02-27T01:30:04.224Z,101750.84
2023-02-27T01:35:29.247Z,101748.19
2023-02-27T01:40:57.712Z,101751.70
2023-02-27T01:46:21.595Z,101751.68
2023-02-27T01:51:50.140Z,101767.52
2023-02-27T01:57:15.963Z,101764.05
2023-02-27T02:02:47.858Z,101777.31
2023-02-27T02:08:12.998Z,101773.79
2023-02-27T02:13:37.695Z,101780.00
2023-02-27T02:19:09.474Z,101787.92
2023-02-27T02:25:06.224Z,101786.14
2023-02-27T02:30:54.692Z,101789.64
2023-02-27T02:37:00.692Z,101794.02
2023-02-27T02:48:36.337Z,101801.98
2023-02-27T02:54:19.362Z,101805.47
2023-02-27T03:00:05.944Z,101811.65
2023-02-27T03:05:36.228Z,101809.02
2023-02-27T03:11:09.304Z,101823.05
2023-02-27T03:16:55.254Z,101839.69
2023-02-27T03:22:31.260Z,101835.31
2023-02-27T03:28:01.205Z,101844.05
2023-02-27T03:33:32.285Z,101839.66
2023-02-27T03:39:20.105Z,101844.05
2023-02-27T03:45:09.499Z,101858.06
2023-02-27T03:50:32.557Z,101858.92
2023-02-27T03:55:57.953Z,101863.31
2023-02-27T04:01:22.105Z,101869.45
2023-02-27T04:07:04.945Z,101877.42
2023-02-27T04:13:12.550Z,101882.72
2023-02-27T04:19:08.716Z,101890.62
2023-02-27T04:24:53.396Z,101884.48
2023-02-27T04:30:26.050Z,101881.86
2023-02-27T04:36:01.499Z,101896.78
2023-02-27T04:41:45.831Z,101900.27
2023-02-27T04:47:11.636Z,101898.51
2023-02-27T04:52:45.045Z,101898.48
2023-02-27T04:58:26.293Z,101906.41
2023-02-27T05:03:55.629Z,101920.39
2023-02-27T05:09:54.674Z,101920.40
2023-02-27T05:15:35.743Z,101923.02
2023-02-27T05:21:08.358Z,101923.00
2023-02-27T05:27:05.526Z,101932.64
2023-02-27T05:32:46.910Z,101942.28
2023-02-27T05:38:33.660Z,101951.93
2023-02-27T05:50:10.496Z,101963.25
2023-02-27T05:55:59.289Z,101972.93
2023-02-27T06:01:24.831Z,101975.55
2023-02-27T06:06:49.212Z,101983.45
2023-02-27T06:12:15.184Z,101982.56
2023-02-27T06:17:39.446Z,101994.84
2023-02-27T06:23:03.018Z,101997.47
2023-02-27T06:28:25.946Z,101998.34
2023-02-27T06:33:49.004Z,102000.95
2023-02-27T06:39:12.495Z,102009.67
2023-02-27T06:44:34.975Z,102009.64
2023-02-27T06:49:58.384Z,102006.95
2023-02-27T06:55:22.948Z,102022.72
2023-02-27T07:00:45.310Z,102024.38
2023-02-27T07:06:07.499Z,102024.35
2023-02-27T07:11:31.211Z,102031.28
2023-02-27T07:16:57.014Z,102041.73
2023-02-27T07:22:20.870Z,102047.83
2023-02-27T07:27:44.946Z,102061.84
2023-02-27T07:33:07.313Z,102065.34
2023-02-27T07:38:32.074Z,102063.49
2023-02-27T07:43:55.178Z,102067.84
2023-02-27T07:49:18.022Z,102071.28
2023-02-27T07:54:40.270Z,102070.31
2023-02-27T08:00:02.486Z,102074.63
2023-02-27T08:05:25.726Z,102074.59
2023-02-27T08:10:49.417Z,102084.16
2023-02-27T08:16:12.120Z,102085.86
2023-02-27T08:21:34.433Z,102089.33
2023-02-27T08:26:57.745Z,102091.96
2023-02-27T08:32:22.726Z,102088.14
2023-02-27T08:37:47.374Z,102102.00
2023-02-27T08:43:10.599Z,102108.01
2023-02-27T08:48:32.990Z,102102.61
2023-02-27T08:53:57.128Z,102111.16
2023-02-27T08:59:20.684Z,102111.16
2023-02-27T09:04:44.098Z,102112.95
2023-02-27T09:10:07.498Z,102122.49
2023-02-27T09:15:32.788Z,102116.40
2023-02-27T09:20:58.218Z,102123.06
2023-02-27T09:26:21.917Z,102127.33
2023-02-27T09:31:46.795Z,102131.16
2023-02-27T09:37:13.256Z,102135.50
2023-02-27T09:42:46.292Z,102144.88
2023-02-27T09:48:51.510Z,102147.42
2023-02-27T09:54:19.317Z,102157.43
2023-02-27T09:59:51.413Z,102155.41
2023-02-27T10:05:32.167Z,102155.45
2023-02-27T10:11:10.171Z,102161.90
2023-02-27T10:16:36.360Z,102154.55
2023-02-27T10:22:02.070Z,102158.98
2023-02-27T10:27:29.572Z,102160.90
2023-02-27T10:32:55.406Z,102171.78
2023-02-27T10:38:30.304Z,102169.95
2023-02-27T10:43:55.549Z,102171.44
2023-02-27T10:49:25.868Z,102170.02
2023-02-27T10:54:49.764Z,102167.33
2023-02-27T11:00:38.436Z,102171.70
2023-02-27T11:06:17.427Z,102171.05
2023-02-27T11:11:41.660Z,102183.89
2023-02-27T11:17:09.451Z,102180.64
2023-02-27T11:22:37.936Z,102181.27
2023-02-27T11:28:04.634Z,102180.04
2023-02-27T11:33:34.172Z,102174.41
2023-02-27T11:39:01.104Z,102166.45
2023-02-27T11:44:50.255Z,102176.92
2023-02-27T11:50:28.650Z,102180.62
2023-02-27T11:55:51.226Z,102180.52
2023-02-27T12:01:32.597Z,102179.49
2023-02-27T12:07:11.967Z,102183.48
2023-02-27T12:12:42.721Z,102170.25
2023-02-27T12:18:28.304Z,102181.12
2023-02-27T12:24:13.390Z,102179.00
2023-02-27T12:29:58.411Z,102174.34
2023-02-27T12:35:39.742Z,102176.47
2023-02-27T12:41:19.494Z,102172.15
2023-02-27T12:47:02.027Z,102177.70
2023-02-27T12:52:38.501Z,102174.26
2023-02-27T13:04:18.818Z,102193.00
2023-02-27T13:10:06.518Z,102197.09
2023-02-27T13:15:41.240Z,102187.88
2023-02-27T13:21:20.324Z,102187.34
2023-02-27T13:26:53.731Z,102179.94
2023-02-27T13:32:45.878Z,102189.95
2023-02-27T13:44:06.065Z,102192.73
2023-02-27T13:49:39.522Z,102199.17
2023-02-27T13:55:11.776Z,102199.89
2023-02-27T14:00:34.618Z,102194.78
2023-02-27T14:06:04.921Z,102194.69
2023-02-27T14:11:42.622Z,102191.20
2023-02-27T14:17:07.024Z,102195.13
2023-02-27T14:22:48.345Z,102200.77
2023-02-27T14:28:14.705Z,102209.48
2023-02-27T14:33:46.063Z,102224.36
2023-02-27T14:39:12.278Z,102233.45
2023-02-27T14:44:45.040Z,102234.35
2023-02-27T14:50:08.217Z,102233.30
2023-02-27T14:55:41.298Z,102230.54
2023-02-27T15:01:12.116Z,102232.66
2023-02-27T15:06:56.857Z,102224.34
2023-02-27T15:12:25.489Z,102237.25
2023-02-27T15:17:53.322Z,102246.53
2023-02-27T15:23:34.414Z,102243.64
2023-02-27T15:29:00.921Z,102252.61
2023-02-27T15:34:25.394Z,102251.31
2023-02-27T15:39:50.297Z,102250.69
2023-02-27T15:45:17.392Z,102266.06
2023-02-27T15:50:43.725Z,102263.94
2023-02-27T15:56:12.502Z,102275.20
2023-02-27T16:01:39.438Z,102275.62
2023-02-27T16:07:07.046Z,102284.88
2023-02-27T16:12:38.383Z,102291.48
2023-02-27T16:18:24.725Z,102301.42
2023-02-27T16:23:49.928Z,102299.88
2023-02-27T16:29:28.644Z,102315.84
2023-02-27T16:34:55.887Z,102313.17
2023-02-27T16:40:22.862Z,102317.61
2023-02-27T16:45:48.670Z,102322.06
2023-02-27T16:51:11.161Z,102322.27
2023-02-27T16:56:38.564Z,102336.52
2023-02-27T17:01:58.790Z,102342.88
2023-02-27T17:07:23.993Z,102350.94
2023-02-27T17:12:48.187Z,102357.23
2023-02-27T17:18:10.647Z,102364.36
2023-02-27T17:23:33.290Z,102377.59
2023-02-27T17:28:56.568Z,102379.38
2023-02-27T17:34:19.017Z,102389.05
2023-02-27T17:39:42.013Z,102392.55
2023-02-27T17:45:06.741Z,102397.78
2023-02-27T17:50:29.456Z,102399.52
2023-02-27T17:55:52.170Z,102396.85
2023-02-27T18:01:21.873Z,102401.21
2023-02-27T18:06:38.892Z,102405.60
2023-02-27T18:12:01.002Z,102409.92
2023-02-27T18:17:23.279Z,102413.43
2023-02-27T18:22:45.846Z,102411.62
2023-02-27T18:28:11.760Z,102422.94
2023-02-27T18:33:34.029Z,102424.56
2023-02-27T18:38:56.695Z,102438.46
2023-02-27T18:44:20.114Z,102436.64
2023-02-27T18:49:42.439Z,102436.65
2023-02-27T18:55:04.715Z,102439.28
2023-02-27T19:00:27.869Z,102438.34
2023-02-27T19:05:54.259Z,102447.18
2023-02-27T19:11:17.582Z,102449.24
2023-02-27T19:16:40.753Z,102450.19
2023-02-27T19:22:03.535Z,102446.68
2023-02-27T19:27:26.419Z,102442.29
2023-02-27T19:32:49.784Z,102449.27
2023-02-27T19:38:12.232Z,102452.70
2023-02-27T19:43:34.589Z,102457.14
2023-02-27T19:48:58.234Z,102458.09
2023-02-27T19:54:21.613Z,102459.06
2023-02-27T19:59:44.307Z,102467.92
2023-02-27T20:05:06.677Z,102468.84
2023-02-27T20:10:30.407Z,102468.80
2023-02-27T20:15:54.533Z,102474.95
2023-02-27T20:21:23.734Z,102476.70
2023-02-27T20:26:59.221Z,102468.77
2023-02-27T20:32:23.577Z,102475.78
2023-02-27T20:37:46.228Z,102485.43
2023-02-27T20:43:09.373Z,102486.36
2023-02-27T20:48:31.595Z,102486.36
2023-02-27T20:54:01.867Z,102488.02
2023-02-27T20:59:27.251Z,102491.48
2023-02-27T21:04:51.358Z,102496.74
2023-02-27T21:10:13.988Z,102496.74
2023-02-27T21:15:36.198Z,102509.08
2023-02-27T21:21:00.113Z,102501.19
2023-02-27T21:26:34.553Z,102509.07
2023-02-27T21:32:07.745Z,102499.42
2023-02-27T21:37:31.503Z,102502.82
2023-02-27T21:42:55.194Z,102502.82
2023-02-27T21:48:18.138Z,102501.05
2023-02-27T21:53:41.016Z,102509.77
2023-02-27T21:59:05.090Z,102507.95
2023-02-27T22:04:28.497Z,102514.02
2023-02-27T22:09:50.669Z,102519.34
2023-02-27T22:15:13.123Z,102512.26
2023-02-27T22:20:35.392Z,102506.06
2023-02-27T22:26:08.252Z,102512.10
2023-02-27T22:31:35.245Z,102511.17
2023-02-27T22:36:59.641Z,102507.63
2023-02-27T22:42:21.917Z,102520.58
2023-02-27T22:47:44.172Z,102516.91
2023-02-27T22:53:06.373Z,102514.19
2023-02-27T22:58:29.787Z,102521.08
2023-02-27T23:03:53.623Z,102528.80
2023-02-27T23:09:18.565Z,102530.31
2023-02-27T23:14:41.314Z,102528.26
2023-02-27T23:20:04.647Z,102523.61
2023-02-27T23:25:27.313Z,102527.02
2023-02-27T23:30:49.843Z,102528.56
2023-02-27T23:36:12.790Z,102533.76
2023-02-27T23:41:35.548Z,102538.84
2023-02-27T23:46:58.149Z,102543.98
2023-02-27T23:52:20.533Z,102546.59
2023-02-27T23:57:42.956Z,102549.80
